Wetterdaten: aktuell Freitag, 24.09.2021 11:36
Datum Zeit Temp. A. Feuchte A. Luftdruck Regen Wind Richtung Richtung Taupunkt Windchill Windben Empfang
24.09.2021 11:36 17,7 C 71 % 1019,9 hPa 0,0 l/m 12,1 km/h (2 Bft) W 271 12,4 C 15,3 C 16,1 km/h (3 Bft) 100 %
24.09.2021 11:34 17,6 C 70 % 1019,9 hPa 0,0 l/m 18,1 km/h (3 Bft) W-NW 290 12,1 C 13,5 C 27,4 km/h (4 Bft) 100 %
24.09.2021 11:32 17,7 C 70 % 1019,9 hPa 0,0 l/m 18,2 km/h (3 Bft) W 275 12,2 C 13,6 C 29,0 km/h (5 Bft) 100 %
24.09.2021 11:30 17,8 C 70 % 1019,9 hPa 0,0 l/m 18,9 km/h (3 Bft) W-SW 252 12,3 C 13,6 C 27,4 km/h (4 Bft) 98 %
24.09.2021 11:28 17,8 C 71 % 1019,9 hPa 0,0 l/m 17,8 km/h (3 Bft) NW 311 12,5 C 13,9 C 27,4 km/h (4 Bft) 96 %
24.09.2021 11:26 17,9 C 69 % 1019,9 hPa 0,0 l/m 17,2 km/h (3 Bft) W-SW 258 12,1 C 14,1 C 30,6 km/h (5 Bft) 100 %
24.09.2021 11:24 17,8 C 70 % 1019,9 hPa 0,0 l/m 16,2 km/h (3 Bft) W-NW 297 12,3 C 14,3 C 20,9 km/h (4 Bft) 100 %
24.09.2021 11:22 17,8 C 69 % 1019,9 hPa 0,0 l/m 17,0 km/h (3 Bft) W-NW 293 12,0 C 14,1 C 29,0 km/h (5 Bft) 100 %
24.09.2021 11:20 17,9 C 70 % 1019,9 hPa 0,0 l/m 13,9 km/h (3 Bft) NW 318 12,3 C 15,0 C 20,9 km/h (4 Bft) 100 %
24.09.2021 11:18 18,0 C 70 % 1019,9 hPa 0,0 l/m 15,8 km/h (3 Bft) W-NW 297 12,4 C 14,6 C 20,9 km/h (4 Bft) 100 %
24.09.2021 11:16 18,0 C 69 % 1020,0 hPa 0,0 l/m 20,7 km/h (4 Bft) W-NW 292 12,2 C 13,5 C 32,2 km/h (5 Bft) 100 %
24.09.2021 11:14 18,1 C 71 % 1019,9 hPa 0,0 l/m 17,8 km/h (3 Bft) W-NW 295 12,8 C 14,2 C 27,4 km/h (4 Bft) 100 %
24.09.2021 11:12 18,0 C 72 % 1019,9 hPa 0,0 l/m 12,0 km/h (2 Bft) NW 311 12,9 C 15,7 C 19,3 km/h (3 Bft) 100 %
24.09.2021 11:10 17,8 C 70 % 1019,9 hPa 0,0 l/m 15,4 km/h (3 Bft) W-NW 286 12,3 C 14,5 C 20,9 km/h (4 Bft) 100 %
24.09.2021 11:08 17,7 C 69 % 1020,0 hPa 0,0 l/m 21,2 km/h (4 Bft) W-SW 241 11,9 C 13,0 C 29,0 km/h (5 Bft) 100 %
24.09.2021 11:06 17,7 C 70 % 1019,9 hPa 0,0 l/m 17,8 km/h (3 Bft) W-SW 250 12,2 C 13,7 C 35,4 km/h (5 Bft) 100 %
24.09.2021 11:04 17,6 C 71 % 1020,0 hPa 0,0 l/m 16,6 km/h (3 Bft) W-NW 300 12,3 C 13,9 C 25,7 km/h (4 Bft) 100 %
24.09.2021 11:02 17,5 C 71 % 1019,9 hPa 0,0 l/m 14,4 km/h (3 Bft) W-NW 290 12,2 C 14,4 C 22,5 km/h (4 Bft) 100 %
24.09.2021 11:00 17,4 C 70 % 1020,0 hPa 0,0 l/m 18,2 km/h (3 Bft) W 266 11,9 C 13,3 C 30,6 km/h (5 Bft) 100 %
24.09.2021 10:58 17,6 C 70 % 1019,9 hPa 0,0 l/m 16,4 km/h (3 Bft) W-NW 282 12,1 C 14,0 C 27,4 km/h (4 Bft) 100 %
24.09.2021 10:56 17,6 C 71 % 1020,0 hPa 0,0 l/m 14,4 km/h (3 Bft) W-NW 292 12,3 C 14,5 C 22,5 km/h (4 Bft) 100 %
24.09.2021 10:54 17,6 C 70 % 1020,0 hPa 0,0 l/m 14,1 km/h (3 Bft) NW 315 12,1 C 14,6 C 20,9 km/h (4 Bft) 100 %
24.09.2021 10:52 17,6 C 70 % 1019,9 hPa 0,0 l/m 18,0 km/h (3 Bft) W-NW 285 12,1 C 13,6 C 27,4 km/h (4 Bft) 100 %
24.09.2021 10:50 17,7 C 69 % 1020,0 hPa 0,0 l/m 18,7 km/h (3 Bft) NW 317 11,9 C 13,5 C 25,7 km/h (4 Bft) 100 %
24.09.2021 10:48 17,8 C 70 % 1020,0 hPa 0,0 l/m 18,0 km/h (3 Bft) W-NW 298 12,3 C 13,8 C 24,1 km/h (4 Bft) 95 %
24.09.2021 10:46 18,0 C 69 % 1019,9 hPa 0,0 l/m 19,8 km/h (3 Bft) W-NW 290 12,2 C 13,7 C 29,0 km/h (5 Bft) 95 %
24.09.2021 10:44 18,1 C 69 % 1019,9 hPa 0,0 l/m 8,8 km/h (2 Bft) NW 321 12,3 C 17,0 C 12,9 km/h (3 Bft) 100 %
24.09.2021 10:42 18,1 C 71 % 1020,0 hPa 0,0 l/m 9,7 km/h (2 Bft) W 275 12,8 C 16,7 C 14,5 km/h (3 Bft) 100 %
24.09.2021 10:40 18,1 C 71 % 1020,0 hPa 0,0 l/m 6,5 km/h (2 Bft) W-NW 302 12,8 C 18,1 C 11,3 km/h (2 Bft) 100 %
24.09.2021 10:38 17,9 C 71 % 1020,0 hPa 0,0 l/m 10,3 km/h (2 Bft) NW 307 12,6 C 16,2 C 17,7 km/h (3 Bft) 100 %
24.09.2021 10:36 18,0 C 71 % 1020,0 hPa 0,0 l/m 11,1 km/h (2 Bft) W-NW 285 12,7 C 16,0 C 22,5 km/h (4 Bft) 100 %
_ Min-Zeit 07:30 02:45 03:40 - 08:04 - - 00:14 05:24 00:08 02:04
Minimum _ 14,3 C 68 % 1017,5 hPa - 3,6 km/h (1 Bft) - - 10,3 C 10,5 C 6,4 km/h (2 Bft) 78 %
_ Max-Zeit 10:44 00:40 10:12 00:00 03:54 - - 10:34 10:40 02:52 00:00
Maximum _ 18,2 C 78 % 1020,1 hPa 0,0 l/m 23,9 km/h
W-NW (4 Bft)
- - 13,0 C 18,1 C 40,2 km/h
W (6 Bft)
100 %
Durchschnitt _ 15,9 C 73 % 1018,8 hPa #0,0 l/m 12,2 km/h (2 Bft) W - 11,0 C 13,4 C 19,4 km/h (3 Bft) 99 %